Oviedo en Asturias

latitud = 43° 21' 16''N | longitud = 005° 52' 22''W
231 metros sobre el nivel del mar | datos mensuales

Fecha, hora, temperatura, viento dirección y velocidad, humedad y presión.

  • 14-10-2018 19:00:00 | 12.20°C | Oeste |17.00 km/h | 86.00% | 971.50 hPa
  • 14-10-2018 18:00:00 | 12.50°C | Oeste |15.00 km/h | 96.00% | 971.50 hPa
  • 14-10-2018 17:00:00 | 11.80°C | Oeste |15.00 km/h | 99.00% | 971.50 hPa
  • 14-10-2018 16:00:00 | 11.90°C | Oeste |14.00 km/h | 95.00% | 971.30 hPa
  • 14-10-2018 15:00:00 | 13.70°C | Oeste |11.00 km/h | 80.00% | 970.90 hPa
  • 14-10-2018 14:00:00 | 13.10°C | Oeste |7.00 km/h | 85.00% | 970.90 hPa
  • 14-10-2018 13:00:00 | 11.90°C | Oeste |5.00 km/h | 94.00% | 970.90 hPa
  • 14-10-2018 12:00:00 | 10.10°C | Oeste |4.00 km/h | 95.00% | 970.80 hPa
  • 14-10-2018 11:00:00 | 9.70°C | Oeste |5.00 km/h | 100.00% | 970.60 hPa
  • 14-10-2018 10:00:00 | 9.60°C | Noroeste |6.00 km/h | 100.00% | 969.50 hPa
  • 14-10-2018 09:00:00 | 9.40°C | Noroeste |8.00 km/h | 100.00% | 968.70 hPa
  • 14-10-2018 08:00:00 | 9.90°C | Noroeste |11.00 km/h | 100.00% | 967.90 hPa
  • 14-10-2018 07:00:00 | 10.80°C | Noroeste |20.00 km/h | 100.00% | 966.50 hPa
  • 14-10-2018 06:00:00 | 11.60°C | Noroeste |9.00 km/h | 100.00% | 965.20 hPa
  • 14-10-2018 05:00:00 | 11.70°C | Oeste |5.00 km/h | 100.00% | 965.10 hPa
  • 14-10-2018 04:00:00 | 12.00°C | Oeste |4.00 km/h | 99.00% | 965.60 hPa
  • 14-10-2018 03:00:00 | 12.00°C | Oeste |6.00 km/h | 99.00% | 966.50 hPa
  • 14-10-2018 02:00:00 | 12.20°C | Oeste |8.00 km/h | 98.00% | 967.50 hPa
  • 14-10-2018 01:00:00 | 13.80°C | Noroeste |16.00 km/h | 93.00% | 968.20 hPa
  • 14-10-2018 00:00:00 | 15.10°C | Noroeste |5.00 km/h | 95.00% | 968.10 hPa
  • 13-10-2018 23:00:00 | 16.00°C | Noroeste |11.00 km/h | 89.00% | 968.40 hPa
  • 13-10-2018 22:00:00 | 17.80°C | Noroeste |12.00 km/h | 79.00% | 968.10 hPa
  • 13-10-2018 21:00:00 | 22.80°C | Nordeste |4.00 km/h | 53.00% | 967.80 hPa
  • 13-10-2018 20:00:00 | 23.40°C | Sur |6.00 km/h | 53.00% | 968.70 hPa